Time;durP1;ratioP1;P1;durP2;ratioP2;P2;SDS_P1;SDS_P2;PMS_P1;PMS_P2;Temp;Humidity;BMP_temperature;BMP_pressure;BME280_temperature;BME280_humidity;BME280_pressure;Samples;Min_cycle;Max_cycle;Signal;HPM_P1;HPM_P2
2023/04/06 00:01:39;;;;;;;;;;;;;;;6.25;46.01;100760.28;4959867;28;6938;-85
2023/04/06 00:04:06;;;;;;;;;;;;;;;6.18;46.22;100755.56;4950908;28;8735;-83
2023/04/06 00:06:32;;;;;;;;;;;;;;;6.13;46.32;100753.44;4965597;28;7029;-83
2023/04/06 00:08:59;;;;;;;;;;;;;;;6.10;46.29;100756.69;4964014;28;8504;-84
2023/04/06 00:11:25;;;;;;;;;;;;;;;6.06;46.42;100747.03;4963837;28;7213;-83
2023/04/06 00:13:51;;;;;;;;;;;;;;;6.02;46.49;100755.22;4968141;28;6796;-83
2023/04/06 00:16:17;;;;;;;;;;;;;;;6.00;46.56;100749.13;4938396;28;8620;-83
2023/04/06 00:18:43;;;;;;;;;;;;;;;5.97;46.83;100750.66;4956284;28;8615;-83
2023/04/06 00:21:13;;;;;;;;;;;;;;;5.95;46.80;100743.69;4958423;28;8416;-84
2023/04/06 00:23:39;;;;;;;;;;;;;;;5.97;46.88;100739.59;4974479;28;7359;-84
2023/04/06 00:26:05;;;;;;;;;;;;;;;5.98;46.99;100742.22;4956290;28;8549;-83
2023/04/06 00:28:30;;;;;;;;;;;;;;;6.00;46.58;100732.19;4970929;28;7086;-84
2023/04/06 00:30:56;;;;;;;;;;;;;;;6.02;46.84;100733.19;4969504;28;7083;-83
2023/04/06 00:33:23;;;;;;;;;;;;;;;6.07;46.78;100730.97;4972299;28;7248;-83
2023/04/06 00:35:50;;;;;;;;;;;;;;;6.08;46.76;100733.66;4967086;28;6958;-84
2023/04/06 00:38:16;;;;;;;;;;;;;;;6.08;46.23;100725.13;4956974;28;6835;-84
2023/04/06 00:40:44;;;;;;;;;;;;;;;6.08;46.46;100727.66;4971823;28;6792;-83
2023/04/06 00:43:11;;;;;;;;;;;;;;;6.03;46.27;100726.47;4947436;28;6822;-84
2023/04/06 00:45:41;;;;;;;;;;;;;;;5.96;46.40;100720.88;4973004;28;6780;-84
2023/04/06 00:48:08;;;;;;;;;;;;;;;5.90;46.74;100723.00;4957458;28;6939;-84
2023/04/06 00:50:35;;;;;;;;;;;;;;;5.87;46.68;100717.69;4967358;28;7154;-83
2023/04/06 00:53:01;;;;;;;;;;;;;;;5.86;46.97;100721.00;4963163;28;8574;-84
2023/04/06 00:55:28;;;;;;;;;;;;;;;5.83;46.74;100716.56;4956441;28;8442;-83
2023/04/06 00:57:57;;;;;;;;;;;;;;;5.82;47.18;100711.41;4972298;28;7221;-83
2023/04/06 01:00:23;;;;;;;;;;;;;;;5.82;47.14;100711.41;4971726;28;6957;-84
2023/04/06 01:02:49;;;;;;;;;;;;;;;5.80;47.04;100712.97;4971273;28;6939;-85
2023/04/06 01:05:15;;;;;;;;;;;;;;;5.78;46.78;100714.47;4969630;28;7279;-83
2023/04/06 01:07:40;;;;;;;;;;;;;;;5.75;46.98;100709.19;4952707;28;8453;-83
2023/04/06 01:10:06;;;;;;;;;;;;;;;5.72;47.01;100703.88;4967763;28;7161;-83
2023/04/06 01:12:32;;;;;;;;;;;;;;;5.71;47.62;100700.44;4962563;28;6804;-83
2023/04/06 01:14:58;;;;;;;;;;;;;;;5.69;47.89;100689.28;4969973;28;6860;-84
2023/04/06 01:17:24;;;;;;;;;;;;;;;5.67;47.55;100690.84;4972079;28;7216;-84
2023/04/06 01:19:51;;;;;;;;;;;;;;;5.63;47.80;100692.25;4971998;28;6799;-84
2023/04/06 01:22:17;;;;;;;;;;;;;;;5.62;47.20;100690.50;4970298;28;7341;-83
2023/04/06 01:24:43;;;;;;;;;;;;;;;5.58;47.97;100691.03;4957527;28;8443;-84
2023/04/06 01:27:09;;;;;;;;;;;;;;;5.53;47.79;100683.06;4947621;28;8414;-83
2023/04/06 01:29:35;;;;;;;;;;;;;;;5.49;48.08;100691.25;4970394;28;6852;-83
2023/04/06 01:32:00;;;;;;;;;;;;;;;5.45;48.26;100680.75;4964336;28;6940;-83
2023/04/06 01:34:26;;;;;;;;;;;;;;;5.43;48.34;100683.16;4952546;28;8714;-84
2023/04/06 01:36:51;;;;;;;;;;;;;;;5.39;48.16;100684.59;4954384;28;8495;-84
2023/04/06 01:39:17;;;;;;;;;;;;;;;5.39;47.83;100681.19;4944625;28;8636;-83
2023/04/06 01:41:43;;;;;;;;;;;;;;;5.38;47.84;100685.38;4963493;28;6768;-83
2023/04/06 01:44:09;;;;;;;;;;;;;;;5.34;48.24;100677.41;4968930;28;6918;-83
2023/04/06 01:46:34;;;;;;;;;;;;;;;5.31;47.98;100667.94;4965011;28;6957;-85
2023/04/06 01:49:00;;;;;;;;;;;;;;;5.29;48.19;100671.97;4952145;28;9484;-84
2023/04/06 01:51:26;;;;;;;;;;;;;;;5.25;48.06;100670.00;4967616;28;6832;-83
2023/04/06 01:53:52;;;;;;;;;;;;;;;5.22;48.09;100670.66;4954531;28;8508;-84
2023/04/06 01:56:19;;;;;;;;;;;;;;;5.17;48.22;100666.00;4966446;28;7166;-84
2023/04/06 01:58:44;;;;;;;;;;;;;;;5.14;48.78;100662.47;4948546;28;8416;-84
2023/04/06 02:01:10;;;;;;;;;;;;;;;5.12;48.10;100664.03;4961200;28;6924;-83
2023/04/06 02:03:36;;;;;;;;;;;;;;;5.10;48.60;100664.69;4968684;28;7209;-84
2023/04/06 02:06:02;;;;;;;;;;;;;;;5.07;48.39;100665.31;4966474;28;6788;-83
2023/04/06 02:08:27;;;;;;;;;;;;;;;5.07;48.44;100661.88;4951033;28;8650;-83
2023/04/06 02:10:53;;;;;;;;;;;;;;;5.03;48.95;100655.72;4948289;28;7026;-85
2023/04/06 02:13:19;;;;;;;;;;;;;;;5.03;48.62;100659.91;4950403;28;7086;-83
2023/04/06 02:15:44;;;;;;;;;;;;;;;5.02;49.15;100664.09;4944154;28;8404;-87
2023/04/06 02:18:10;;;;;;;;;;;;;;;5.01;48.86;100652.16;4967703;28;7081;-88
2023/04/06 02:20:36;;;;;;;;;;;;;;;5.00;48.47;100661.44;4956523;28;8372;-87
2023/04/06 02:23:01;;;;;;;;;;;;;;;4.98;48.80;100659.56;4944757;28;8337;-87
2023/04/06 02:25:27;;;;;;;;;;;;;;;4.95;48.81;100650.03;4932957;28;7031;-87
2023/04/06 02:27:54;;;;;;;;;;;;;;;4.92;48.77;100648.94;4970307;28;7044;-86
2023/04/06 02:30:19;;;;;;;;;;;;;;;4.91;48.93;100645.53;4957522;28;8466;-87
2023/04/06 02:32:45;;;;;;;;;;;;;;;4.90;48.47;100651.38;4954012;28;8345;-87
2023/04/06 02:35:10;;;;;;;;;;;;;;;4.90;48.60;100641.22;4966542;28;7191;-87
2023/04/06 02:37:36;;;;;;;;;;;;;;;4.89;49.21;100644.53;4969807;28;8389;-86
2023/04/06 02:40:02;;;;;;;;;;;;;;;4.89;49.06;100654.69;4952103;28;7125;-87
2023/04/06 02:42:28;;;;;;;;;;;;;;;4.86;49.20;100641.75;4967980;28;7220;-87
2023/04/06 02:44:53;;;;;;;;;;;;;;;4.85;49.38;100643.41;4948861;28;8462;-87
2023/04/06 02:47:19;;;;;;;;;;;;;;;4.86;49.09;100639.19;4950513;28;7242;-87
2023/04/06 02:49:44;;;;;;;;;;;;;;;4.86;48.83;100634.13;4943207;28;8310;-86
2023/04/06 02:52:10;;;;;;;;;;;;;;;4.85;49.51;100627.28;4959785;28;8780;-87
2023/04/06 02:54:36;;;;;;;;;;;;;;;4.85;49.04;100633.25;4952843;28;8716;-87
2023/04/06 02:57:01;;;;;;;;;;;;;;;4.89;49.08;100634.38;4952398;28;6937;-87
2023/04/06 02:59:27;;;;;;;;;;;;;;;4.85;48.73;100624.72;4953326;28;8377;-87
2023/04/06 03:01:53;;;;;;;;;;;;;;;4.83;48.74;100626.28;4959438;28;6814;-86
2023/04/06 03:04:18;;;;;;;;;;;;;;;4.82;48.30;100621.97;4953572;28;8712;-87
2023/04/06 03:06:44;;;;;;;;;;;;;;;4.82;48.83;100625.38;4962436;28;7195;-86
2023/04/06 03:09:10;;;;;;;;;;;;;;;4.82;48.60;100627.06;4964509;28;6939;-86
2023/04/06 03:11:35;;;;;;;;;;;;;;;4.81;48.29;100622.75;4960252;28;8357;-87
2023/04/06 03:14:01;;;;;;;;;;;;;;;4.81;49.03;100631.22;4965022;28;8484;-87
2023/04/06 03:16:28;;;;;;;;;;;;;;;4.79;48.52;100622.63;4957796;28;8384;-86
2023/04/06 03:18:53;;;;;;;;;;;;;;;4.81;49.14;100628.69;4966694;28;7164;-86
2023/04/06 03:21:19;;;;;;;;;;;;;;;4.85;48.80;100624.72;4948192;28;6943;-86
2023/04/06 03:23:49;;;;;;;;;;;;;;;4.85;48.33;100620.56;4960660;28;6940;-87
2023/04/06 03:26:15;;;;;;;;;;;;;;;4.89;49.10;100621.66;4956378;28;8031;-86
2023/04/06 03:28:40;;;;;;;;;;;;;;;4.91;48.56;100621.75;4962930;28;7029;-87
2023/04/06 03:31:06;;;;;;;;;;;;;;;4.91;48.74;100611.59;4963014;28;7011;-87
2023/04/06 03:33:31;;;;;;;;;;;;;;;4.94;49.37;100620.34;4950211;28;8462;-87
2023/04/06 03:35:57;;;;;;;;;;;;;;;4.98;48.62;100614.72;4950344;28;8825;-87
2023/04/06 03:38:23;;;;;;;;;;;;;;;5.00;49.06;100612.28;4942279;28;8615;-87
2023/04/06 03:40:48;;;;;;;;;;;;;;;5.03;49.32;100611.63;4924317;28;8327;-88
2023/04/06 03:43:14;;;;;;;;;;;;;;;5.09;49.34;100607.88;4963856;28;7181;-87
2023/04/06 03:45:40;;;;;;;;;;;;;;;5.12;49.59;100603.03;4939061;28;8412;-88
2023/04/06 03:48:05;;;;;;;;;;;;;;;5.19;49.05;100606.00;4961128;28;7157;-87
2023/04/06 03:50:31;;;;;;;;;;;;;;;5.27;49.63;100607.47;4934144;28;8412;-87
2023/04/06 03:52:57;;;;;;;;;;;;;;;5.36;49.53;100600.50;4969863;28;7186;-88
2023/04/06 03:55:23;;;;;;;;;;;;;;;5.42;48.71;100600.94;4963626;28;7177;-89
2023/04/06 03:57:48;;;;;;;;;;;;;;;5.48;49.00;100599.59;4951988;28;8374;-90
2023/04/06 04:00:15;;;;;;;;;;;;;;;5.52;48.88;100592.31;4950966;28;8334;-88
2023/04/06 04:02:40;;;;;;;;;;;;;;;5.56;48.39;100594.31;4947905;28;8638;-88
2023/04/06 04:05:07;;;;;;;;;;;;;;;5.61;48.49;100592.09;4947018;28;8411;-88
2023/04/06 04:07:33;;;;;;;;;;;;;;;5.62;48.33;100596.41;4961841;28;8446;-87
2023/04/06 04:09:59;;;;;;;;;;;;;;;5.65;48.43;100598.25;4966412;28;8650;-87
2023/04/06 04:12:25;;;;;;;;;;;;;;;5.68;48.22;100601.91;4930283;28;8585;-87
2023/04/06 04:14:50;;;;;;;;;;;;;;;5.72;48.76;100602.16;4931450;28;8340;-89
2023/04/06 04:17:17;;;;;;;;;;;;;;;5.74;48.56;100600.59;4954628;28;8483;-88
2023/04/06 04:19:42;;;;;;;;;;;;;;;5.78;48.68;100602.56;4954647;28;8411;-88
2023/04/06 04:22:08;;;;;;;;;;;;;;;5.81;48.37;100597.72;4956622;28;8358;-87
2023/04/06 04:24:34;;;;;;;;;;;;;;;5.86;49.01;100600.56;4968068;28;7182;-88
2023/04/06 04:27:00;;;;;;;;;;;;;;;5.89;48.50;100606.75;4969720;28;7169;-88
2023/04/06 04:29:26;;;;;;;;;;;;;;;5.92;48.89;100601.88;4952346;28;8380;-87
2023/04/06 04:31:52;;;;;;;;;;;;;;;5.96;49.19;100613.16;4950340;28;8322;-88
2023/04/06 04:34:23;;;;;;;;;;;;;;;5.98;48.59;100612.47;4970357;28;6784;-87
2023/04/06 04:36:51;;;;;;;;;;;;;;;6.00;48.87;100614.25;4968505;28;7190;-87
2023/04/06 04:39:17;;;;;;;;;;;;;;;6.05;48.66;100612.94;4969043;28;7182;-88
2023/04/06 04:41:42;;;;;;;;;;;;;;;6.08;48.99;100611.50;4944113;28;8367;-88
2023/04/06 04:44:08;;;;;;;;;;;;;;;6.11;48.99;100603.19;4957920;28;9471;-88
2023/04/06 04:46:34;;;;;;;;;;;;;;;6.18;48.77;100604.50;4946328;28;8474;-88
2023/04/06 04:48:59;;;;;;;;;;;;;;;6.21;48.36;100603.06;4945217;28;10112;-88
2023/04/06 04:51:25;;;;;;;;;;;;;;;6.24;48.65;100599.84;4956426;28;6959;-87
2023/04/06 04:53:51;;;;;;;;;;;;;;;6.28;48.59;100599.25;4958455;28;6852;-87
2023/04/06 04:56:16;;;;;;;;;;;;;;;6.32;48.94;100598.69;4980254;28;6933;-87
2023/04/06 04:58:42;;;;;;;;;;;;;;;6.37;48.67;100607.53;4948400;28;8312;-87
2023/04/06 05:01:08;;;;;;;;;;;;;;;6.41;48.77;100611.16;4944864;28;8747;-88
2023/04/06 05:03:35;;;;;;;;;;;;;;;6.46;48.88;100602.16;4960203;28;8517;-88
2023/04/06 05:06:01;;;;;;;;;;;;;;;6.50;48.87;100600.72;4966567;28;8534;-88
2023/04/06 05:08:27;;;;;;;;;;;;;;;6.55;48.68;100607.00;4932423;28;6984;-88
2023/04/06 05:10:53;;;;;;;;;;;;;;;6.60;48.66;100604.78;4960878;28;8599;-87
2023/04/06 05:13:18;;;;;;;;;;;;;;;6.65;48.96;100603.41;4960440;28;7302;-87
2023/04/06 05:15:44;;;;;;;;;;;;;;;6.67;48.70;100596.78;4952601;28;8630;-88
2023/04/06 05:18:10;;;;;;;;;;;;;;;6.74;48.41;100595.50;4928926;28;8661;-88
2023/04/06 05:20:38;;;;;;;;;;;;;;;6.80;48.38;100595.91;4958845;28;8761;-87
2023/04/06 05:23:04;;;;;;;;;;;;;;;6.86;48.62;100598.00;4942993;28;8560;-87
2023/04/06 05:25:32;;;;;;;;;;;;;;;6.93;48.34;100602.69;4944031;28;8820;-87
2023/04/06 05:27:57;;;;;;;;;;;;;;;6.98;48.39;100592.81;4958400;28;8441;-88
2023/04/06 05:30:23;;;;;;;;;;;;;;;7.05;48.35;100600.06;4928126;28;8503;-87
2023/04/06 05:32:50;;;;;;;;;;;;;;;7.13;48.71;100598.00;4963578;28;7233;-88
2023/04/06 05:35:16;;;;;;;;;;;;;;;7.18;48.31;100594.97;4961035;28;6953;-88
2023/04/06 05:37:43;;;;;;;;;;;;;;;7.27;47.84;100598.91;4948985;28;8499;-87
2023/04/06 05:40:09;;;;;;;;;;;;;;;7.35;47.71;100598.63;4972736;28;6940;-88
2023/04/06 05:42:40;;;;;;;;;;;;;;;7.42;48.10;100589.72;4945662;28;8506;-87
2023/04/06 05:45:07;;;;;;;;;;;;;;;7.52;48.60;100586.06;4949629;28;6966;-86
2023/04/06 05:47:33;;;;;;;;;;;;;;;7.62;47.66;100590.94;4959412;28;8535;-85
2023/04/06 05:49:58;;;;;;;;;;;;;;;7.72;47.92;100583.88;4945382;28;8305;-88
2023/04/06 05:52:24;;;;;;;;;;;;;;;7.82;48.03;100586.22;4965640;28;10540;-86
2023/04/06 05:54:50;;;;;;;;;;;;;;;7.95;48.59;100581.88;4960760;28;7167;-87
2023/04/06 05:57:16;;;;;;;;;;;;;;;8.07;48.11;100580.06;4961661;28;6839;-87
2023/04/06 05:59:42;;;;;;;;;;;;;;;8.22;48.26;100584.38;4944714;28;7039;-87
2023/04/06 06:02:08;;;;;;;;;;;;;;;8.36;48.31;100582.63;4922216;28;8397;-86
2023/04/06 06:04:33;;;;;;;;;;;;;;;8.48;47.63;100576.56;4942872;28;8491;-87
2023/04/06 06:07:00;;;;;;;;;;;;;;;8.64;47.78;100589.38;4944013;28;8366;-86
2023/04/06 06:09:25;;;;;;;;;;;;;;;8.79;47.65;100580.06;4958640;28;7053;-86
2023/04/06 06:11:51;;;;;;;;;;;;;;;8.94;47.27;100574.97;4935580;28;8414;-85
2023/04/06 06:14:17;;;;;;;;;;;;;;;9.08;47.06;100572.31;4930351;28;8424;-84
2023/04/06 06:16:43;;;;;;;;;;;;;;;9.21;47.12;100568.75;4956246;28;8350;-84
2023/04/06 06:19:08;;;;;;;;;;;;;;;9.31;46.52;100577.06;4944217;28;8461;-84
2023/04/06 06:21:34;;;;;;;;;;;;;;;9.41;46.43;100570.75;4957674;28;8767;-83
2023/04/06 06:24:01;;;;;;;;;;;;;;;9.50;46.55;100572.06;4955620;28;8444;-86
2023/04/06 06:26:27;;;;;;;;;;;;;;;9.58;45.97;100571.72;4957293;28;6992;-86
2023/04/06 06:28:53;;;;;;;;;;;;;;;9.68;46.11;100572.22;4944678;28;7181;-87
2023/04/06 06:31:22;;;;;;;;;;;;;;;9.81;46.60;100564.38;4939678;28;8970;-85
2023/04/06 06:33:50;;;;;;;;;;;;;;;9.97;46.87;100576.31;4960348;28;6820;-85
2023/04/06 06:36:17;;;;;;;;;;;;;;;10.12;46.16;100573.69;4941754;28;8814;-85
2023/04/06 06:38:44;;;;;;;;;;;;;;;10.27;46.86;100571.03;4939913;28;8469;-86
2023/04/06 06:41:10;;;;;;;;;;;;;;;10.44;46.93;100573.63;4949076;28;6962;-86
2023/04/06 06:43:36;;;;;;;;;;;;;;;10.60;46.28;100580.41;4961382;28;7336;-86
2023/04/06 06:46:03;;;;;;;;;;;;;;;10.74;46.59;100572.56;4963218;28;7234;-85
2023/04/06 06:48:28;;;;;;;;;;;;;;;10.87;46.02;100564.66;4960984;28;7159;-86
2023/04/06 06:50:54;;;;;;;;;;;;;;;10.99;46.22;100561.81;4946789;28;7028;-86
2023/04/06 06:53:20;;;;;;;;;;;;;;;11.10;46.01;100567.47;4941828;28;8391;-85
2023/04/06 06:55:46;;;;;;;;;;;;;;;11.26;45.50;100569.09;4939309;28;8793;-86
2023/04/06 06:58:11;;;;;;;;;;;;;;;11.40;45.64;100569.75;4951250;28;7179;-86
2023/04/06 07:00:37;;;;;;;;;;;;;;;11.56;45.50;100570.47;4934225;28;8516;-86
2023/04/06 07:03:03;;;;;;;;;;;;;;;11.70;44.98;100569.44;4957992;28;7007;-86
2023/04/06 07:05:29;;;;;;;;;;;;;;;11.86;45.11;100573.56;4955728;28;8386;-85
2023/04/06 07:07:55;;;;;;;;;;;;;;;12.00;44.77;100561.34;4959696;28;6780;-85
2023/04/06 07:10:21;;;;;;;;;;;;;;;12.15;44.34;100561.19;4958926;28;8204;-86
2023/04/06 07:12:47;;;;;;;;;;;;;;;12.34;44.48;100562.84;4946659;28;7519;-86
2023/04/06 07:15:12;;;;;;;;;;;;;;;12.51;44.15;100557.56;4929407;28;8881;-86
2023/04/06 07:17:38;;;;;;;;;;;;;;;12.66;44.01;100554.78;4960056;28;7384;-86
2023/04/06 07:20:05;;;;;;;;;;;;;;;12.80;43.75;100555.34;4945109;28;8433;-86
2023/04/06 07:22:31;;;;;;;;;;;;;;;12.96;43.89;100562.00;4941885;28;6800;-85
2023/04/06 07:24:56;;;;;;;;;;;;;;;13.13;43.98;100554.09;4941171;28;8824;-84
2023/04/06 07:27:22;;;;;;;;;;;;;;;13.28;43.26;100562.44;4958231;28;6950;-86
2023/04/06 07:29:47;;;;;;;;;;;;;;;13.43;43.18;100554.44;4940527;28;6880;-85
2023/04/06 07:32:13;;;;;;;;;;;;;;;13.59;43.23;100555.03;4946029;28;7013;-86
2023/04/06 07:34:39;;;;;;;;;;;;;;;13.73;43.22;100556.44;4958346;28;8807;-85
2023/04/06 07:37:05;;;;;;;;;;;;;;;13.85;43.08;100555.13;4959657;28;7069;-85
2023/04/06 07:39:30;;;;;;;;;;;;;;;13.96;42.92;100552.97;4957846;28;8052;-86
2023/04/06 07:41:56;;;;;;;;;;;;;;;14.04;42.91;100559.25;4957290;28;6768;-85
2023/04/06 07:44:21;;;;;;;;;;;;;;;14.12;42.57;100556.97;4957121;28;7241;-85
2023/04/06 07:46:47;;;;;;;;;;;;;;;14.20;42.95;100552.97;4943045;28;8490;-85
2023/04/06 07:49:13;;;;;;;;;;;;;;;14.27;42.83;100549.75;4936726;28;8312;-86
2023/04/06 07:51:39;;;;;;;;;;;;;;;14.37;41.90;100544.94;4964616;28;6772;-85
2023/04/06 07:54:05;;;;;;;;;;;;;;;14.46;42.18;100542.66;4957950;28;8568;-85
2023/04/06 07:56:31;;;;;;;;;;;;;;;14.57;42.40;100543.06;4956775;28;8613;-85
2023/04/06 07:58:57;;;;;;;;;;;;;;;14.66;41.87;100547.63;4955321;28;8437;-85
2023/04/06 08:01:24;;;;;;;;;;;;;;;14.77;41.92;100543.72;4940679;28;8482;-86
2023/04/06 08:03:51;;;;;;;;;;;;;;;14.85;42.17;100544.00;4970303;28;8846;-86
2023/04/06 08:06:17;;;;;;;;;;;;;;;14.89;40.99;100539.81;4950897;28;8421;-86
2023/04/06 08:08:43;;;;;;;;;;;;;;;14.92;41.69;100539.91;4952177;28;6906;-86
2023/04/06 08:11:09;;;;;;;;;;;;;;;14.97;41.08;100538.38;4973221;28;6788;-86
2023/04/06 08:13:35;;;;;;;;;;;;;;;14.98;41.26;100533.25;4971715;28;6800;-86
2023/04/06 08:16:01;;;;;;;;;;;;;;;15.02;41.44;100536.81;4940560;28;8980;-86
2023/04/06 08:18:27;;;;;;;;;;;;;;;15.07;41.17;100535.25;4957234;28;8533;-86
2023/04/06 08:20:54;;;;;;;;;;;;;;;15.14;42.21;100537.19;4973090;28;6812;-85
2023/04/06 08:23:19;;;;;;;;;;;;;;;15.27;41.79;100547.91;4972379;28;7178;-86
2023/04/06 08:25:45;;;;;;;;;;;;;;;15.38;42.15;100538.78;4958037;28;8796;-86
2023/04/06 08:28:11;;;;;;;;;;;;;;;15.51;41.93;100540.03;4969633;28;6780;-85
2023/04/06 08:30:39;;;;;;;;;;;;;;;15.64;41.69;100536.09;4970788;28;7015;-86
2023/04/06 08:33:05;;;;;;;;;;;;;;;15.79;42.12;100542.53;4967734;28;8470;-86
2023/04/06 08:35:31;;;;;;;;;;;;;;;15.93;41.13;100536.13;4955208;28;8798;-85
2023/04/06 08:37:57;;;;;;;;;;;;;;;16.03;40.75;100546.69;4969305;28;7000;-86
2023/04/06 08:40:23;;;;;;;;;;;;;;;16.06;40.24;100549.38;4950846;28;6784;-86
2023/04/06 08:42:55;;;;;;;;;;;;;;;16.09;39.89;100549.44;4971633;28;7175;-86
2023/04/06 08:45:22;;;;;;;;;;;;;;;16.06;38.63;100552.81;4971939;28;7275;-86
2023/04/06 08:47:52;;;;;;;;;;;;;;;16.07;38.41;100548.53;4966839;28;6789;-86
2023/04/06 08:50:18;;;;;;;;;;;;;;;16.10;38.33;100544.34;4968251;28;7057;-86
2023/04/06 08:52:48;;;;;;;;;;;;;;;16.18;37.99;100541.09;4965883;28;7012;-84
2023/04/06 08:55:15;;;;;;;;;;;;;;;16.24;37.68;100542.13;4974022;28;7054;-84
2023/04/06 08:57:42;;;;;;;;;;;;;;;16.29;37.31;100539.66;4973291;28;6999;-87
2023/04/06 09:00:11;;;;;;;;;;;;;;;16.33;37.13;100545.78;4946087;28;8527;-86
2023/04/06 09:02:45;;;;;;;;;;;;;;;16.32;36.89;100544.91;4949010;28;13621;-88
2023/04/06 09:05:11;;;;;;;;;;;;;;;16.34;36.31;100553.56;4951841;28;8775;-86
2023/04/06 09:07:37;;;;;;;;;;;;;;;16.41;36.63;100552.03;4940465;28;8549;-86
2023/04/06 09:10:08;;;;;;;;;;;;;;;16.50;36.58;100548.81;4970414;28;7219;-86
2023/04/06 09:12:35;;;;;;;;;;;;;;;16.63;36.40;100550.00;4945496;28;8519;-86
2023/04/06 09:15:02;;;;;;;;;;;;;;;16.77;35.96;100547.78;4971936;28;8488;-86
2023/04/06 09:17:32;;;;;;;;;;;;;;;16.88;35.94;100541.16;4953272;28;8517;-86
2023/04/06 09:19:58;;;;;;;;;;;;;;;17.01;35.83;100547.53;4965368;28;6804;-85
2023/04/06 09:22:29;;;;;;;;;;;;;;;17.16;35.44;100541.84;4954938;28;7252;-86
2023/04/06 09:24:54;;;;;;;;;;;;;;;17.30;34.95;100547.34;4965737;28;6800;-86
2023/04/06 09:27:35;;;;;;;;;;;;;;;17.41;34.89;100551.88;4969764;28;7083;-86
2023/04/06 09:30:13;;;;;;;;;;;;;;;17.44;35.06;100541.56;4953130;28;7050;-86
2023/04/06 09:32:51;;;;;;;;;;;;;;;17.52;34.83;100555.56;4962896;28;11960;-86
2023/04/06 09:35:22;;;;;;;;;;;;;;;17.59;34.70;100549.69;4943710;28;8369;-86
2023/04/06 09:37:50;;;;;;;;;;;;;;;17.63;34.65;100551.50;4951670;28;8437;-86
2023/04/06 09:40:18;;;;;;;;;;;;;;;17.67;34.49;100549.84;4959212;28;8472;-86
2023/04/06 09:42:51;;;;;;;;;;;;;;;17.65;34.12;100548.06;4952387;28;7232;-86
2023/04/06 09:45:17;;;;;;;;;;;;;;;17.58;34.22;100550.53;4951722;28;8505;-86
2023/04/06 09:47:45;;;;;;;;;;;;;;;17.50;33.91;100557.25;4950477;28;8641;-86
2023/04/06 09:50:14;;;;;;;;;;;;;;;17.42;34.15;100557.06;4966808;28;6865;-86
2023/04/06 09:52:42;;;;;;;;;;;;;;;17.38;33.76;100556.97;4971057;28;6843;-86
2023/04/06 09:55:09;;;;;;;;;;;;;;;17.31;33.95;100559.44;4969143;28;7186;-86
2023/04/06 09:58:06;;;;;;;;;;;;;;;17.26;33.70;100557.59;4961022;28;8858;-86
2023/04/06 10:01:13;;;;;;;;;;;;;;;17.20;33.42;100558.31;4957499;28;8501;-86
2023/04/06 10:04:09;;;;;;;;;;;;;;;17.12;33.45;100557.25;4942047;28;8722;-87
2023/04/06 10:06:38;;;;;;;;;;;;;;;17.11;33.36;100560.69;4966168;28;6820;-86
2023/04/06 10:09:07;;;;;;;;;;;;;;;17.17;33.67;100561.72;4942385;28;8786;-86
2023/04/06 10:11:34;;;;;;;;;;;;;;;17.25;33.26;100566.19;4971901;28;8543;-86
2023/04/06 10:14:01;;;;;;;;;;;;;;;17.39;33.85;100564.78;4962613;28;7130;-86
2023/04/06 10:16:29;;;;;;;;;;;;;;;17.60;33.59;100558.31;4970556;28;8168;-86
2023/04/06 10:19:10;;;;;;;;;;;;;;;17.84;33.42;100551.94;4969735;28;7145;-86
2023/04/06 10:21:39;;;;;;;;;;;;;;;18.11;33.41;100546.44;4966415;28;6827;-86
2023/04/06 10:24:10;;;;;;;;;;;;;;;18.44;33.00;100549.63;4968224;28;7399;-86
2023/04/06 10:26:36;;;;;;;;;;;;;;;18.73;32.87;100546.66;4955375;28;8542;-87
2023/04/06 10:29:06;;;;;;;;;;;;;;;18.93;32.26;100549.59;4968617;28;6780;-87
2023/04/06 10:31:32;;;;;;;;;;;;;;;19.04;32.06;100541.13;4960398;28;8704;-87
2023/04/06 10:34:01;;;;;;;;;;;;;;;19.09;32.43;100544.66;4969503;28;7049;-86
2023/04/06 10:36:33;;;;;;;;;;;;;;;19.10;31.81;100556.78;4967551;28;6788;-87
2023/04/06 10:39:02;;;;;;;;;;;;;;;19.04;32.09;100552.38;4943163;28;8523;-86
2023/04/06 10:41:43;;;;;;;;;;;;;;;18.89;31.69;100555.56;4934372;28;8448;-87
2023/04/06 10:44:22;;;;;;;;;;;;;;;18.70;32.15;100557.00;4966502;28;7307;-86
2023/04/06 10:47:00;;;;;;;;;;;;;;;18.58;32.06;100557.66;4951863;28;8624;-87
2023/04/06 10:49:26;;;;;;;;;;;;;;;18.51;32.75;100561.00;4956513;28;8599;-86
2023/04/06 10:51:55;;;;;;;;;;;;;;;18.48;32.48;100560.94;4954314;28;6788;-87
2023/04/06 10:54:27;;;;;;;;;;;;;;;18.47;32.47;100557.47;4966359;28;7031;-87
2023/04/06 10:56:53;;;;;;;;;;;;;;;18.50;32.71;100557.53;4944499;28;8791;-88
2023/04/06 10:59:24;;;;;;;;;;;;;;;18.56;32.39;100554.19;4941221;28;8416;-89
2023/04/06 11:01:50;;;;;;;;;;;;;;;18.59;32.56;100551.63;4954071;28;7358;-86
2023/04/06 11:04:18;;;;;;;;;;;;;;;18.64;32.62;100547.41;4968303;28;6852;-86
2023/04/06 11:06:48;;;;;;;;;;;;;;;18.71;32.54;100554.41;4951057;28;8536;-85
2023/04/06 11:09:27;;;;;;;;;;;;;;;18.68;32.34;100559.56;4953189;28;8647;-87
2023/04/06 11:11:54;;;;;;;;;;;;;;;18.52;32.52;100553.25;4959613;28;8511;-86
2023/04/06 11:14:19;;;;;;;;;;;;;;;18.39;33.36;100554.75;4959609;28;8411;-86
2023/04/06 11:16:50;;;;;;;;;;;;;;;18.39;33.07;100552.16;4958144;28;8514;-86
2023/04/06 11:19:17;;;;;;;;;;;;;;;18.39;32.65;100549.56;4971222;28;7209;-86
2023/04/06 11:21:48;;;;;;;;;;;;;;;18.34;32.41;100553.75;4940723;28;8764;-86
2023/04/06 11:24:24;;;;;;;;;;;;;;;18.20;32.60;100552.66;4939407;28;6816;-87
2023/04/06 11:26:58;;;;;;;;;;;;;;;18.02;33.13;100559.19;4952826;28;8365;-87
2023/04/06 11:29:30;;;;;;;;;;;;;;;17.81;32.79;100542.34;4954205;28;6804;-87
2023/04/06 11:32:02;;;;;;;;;;;;;;;17.63;33.04;100550.63;4942477;28;8439;-87
2023/04/06 11:34:30;;;;;;;;;;;;;;;17.57;33.63;100545.31;4943359;28;7061;-87
2023/04/06 11:37:04;;;;;;;;;;;;;;;17.53;33.30;100531.41;4960575;28;6792;-86
2023/04/06 11:39:30;;;;;;;;;;;;;;;17.51;33.64;100543.47;4953255;28;8480;-86
2023/04/06 11:42:02;;;;;;;;;;;;;;;17.44;33.62;100539.88;4972353;28;7245;-86
2023/04/06 11:44:45;;;;;;;;;;;;;;;17.36;33.94;100538.81;4949812;28;8791;-86
2023/04/06 11:47:12;;;;;;;;;;;;;;;17.29;34.33;100543.00;4951514;28;8471;-86
2023/04/06 11:49:44;;;;;;;;;;;;;;;17.17;34.31;100533.22;4967080;28;7519;-86
2023/04/06 11:52:24;;;;;;;;;;;;;;;17.01;34.63;100537.19;4958593;28;8451;-86
2023/04/06 11:54:52;;;;;;;;;;;;;;;16.82;34.61;100530.63;4959138;28;8589;-86
2023/04/06 11:57:21;;;;;;;;;;;;;;;16.71;35.53;100526.91;4950836;28;7191;-86
2023/04/06 11:59:47;;;;;;;;;;;;;;;16.63;36.18;100530.16;4970625;28;6856;-86
2023/04/06 12:02:13;;;;;;;;;;;;;;;16.52;36.04;100539.38;4963703;28;6987;-86
2023/04/06 12:04:38;;;;;;;;;;;;;;;16.40;36.78;100529.56;4957205;28;8415;-86
2023/04/06 12:07:05;;;;;;;;;;;;;;;16.27;36.83;100532.69;4965307;28;7234;-86
2023/04/06 12:09:31;;;;;;;;;;;;;;;16.07;37.00;100538.19;4954739;28;8373;-86
2023/04/06 12:11:57;;;;;;;;;;;;;;;15.88;38.08;100547.09;4951357;28;8750;-85
2023/04/06 12:14:23;;;;;;;;;;;;;;;15.69;38.27;100539.69;4951236;28;8587;-85
2023/04/06 12:16:48;;;;;;;;;;;;;;;15.53;39.09;100535.78;4966314;28;7238;-86
2023/04/06 12:19:14;;;;;;;;;;;;;;;15.36;39.54;100543.03;4956127;28;8450;-85
2023/04/06 12:21:40;;;;;;;;;;;;;;;15.18;39.84;100545.03;4955027;28;8395;-85
2023/04/06 12:24:06;;;;;;;;;;;;;;;14.99;40.20;100541.88;4951999;28;8594;-85
2023/04/06 12:26:33;;;;;;;;;;;;;;;14.86;40.63;100553.50;4963978;28;6827;-85
2023/04/06 12:29:06;;;;;;;;;;;;;;;14.74;40.95;100542.78;4943361;28;8631;-85
2023/04/06 12:31:35;;;;;;;;;;;;;;;14.62;41.77;100546.66;4953694;28;8454;-85
2023/04/06 12:34:03;;;;;;;;;;;;;;;14.58;41.77;100543.13;4959833;28;8518;-85
2023/04/06 12:36:29;;;;;;;;;;;;;;;14.54;42.16;100543.81;4949697;28;8466;-86
2023/04/06 12:38:55;;;;;;;;;;;;;;;14.49;42.89;100532.47;4940488;28;6860;-85
2023/04/06 12:41:21;;;;;;;;;;;;;;;14.44;43.01;100523.69;4969293;28;6816;-85
2023/04/06 12:43:49;;;;;;;;;;;;;;;14.42;43.31;100533.09;4943230;28;8474;-85
2023/04/06 12:46:15;;;;;;;;;;;;;;;14.40;43.48;100534.75;4954484;28;8360;-85
2023/04/06 12:48:41;;;;;;;;;;;;;;;14.40;43.47;100529.59;4936748;28;8508;-86
2023/04/06 12:51:07;;;;;;;;;;;;;;;14.37;44.00;100532.94;4949619;28;8445;-85
2023/04/06 12:53:34;;;;;;;;;;;;;;;14.32;44.18;100521.56;4943247;28;7163;-86